sensor_id;sensor_type;location;lat;lon;timestamp;P1;durP1;ratioP1;P2;durP2;ratioP2
13218;SDS011;6674;49.152;11.918;2022-10-01T00:00:35;5.17;;;4.47;;
13218;SDS011;6674;49.152;11.918;2022-10-01T00:03:02;5.20;;;4.80;;
13218;SDS011;6674;49.152;11.918;2022-10-01T00:05:28;5.10;;;4.70;;
13218;SDS011;6674;49.152;11.918;2022-10-01T00:07:55;5.10;;;4.70;;
13218;SDS011;6674;49.152;11.918;2022-10-01T00:10:22;4.73;;;4.40;;
13218;SDS011;6674;49.152;11.918;2022-10-01T00:12:51;5.00;;;4.50;;
13218;SDS011;6674;49.152;11.918;2022-10-01T00:15:17;6.50;;;5.90;;
13218;SDS011;6674;49.152;11.918;2022-10-01T00:17:45;5.63;;;5.13;;
13218;SDS011;6674;49.152;11.918;2022-10-01T00:20:12;5.10;;;4.70;;
13218;SDS011;6674;49.152;11.918;2022-10-01T00:22:39;5.83;;;5.30;;
13218;SDS011;6674;49.152;11.918;2022-10-01T00:25:07;5.57;;;5.07;;
13218;SDS011;6674;49.152;11.918;2022-10-01T00:27:34;4.97;;;4.57;;
13218;SDS011;6674;49.152;11.918;2022-10-01T00:30:03;6.20;;;5.60;;
13218;SDS011;6674;49.152;11.918;2022-10-01T00:32:30;6.37;;;5.77;;
13218;SDS011;6674;49.152;11.918;2022-10-01T00:34:57;7.37;;;6.73;;
13218;SDS011;6674;49.152;11.918;2022-10-01T00:37:24;7.30;;;6.60;;
13218;SDS011;6674;49.152;11.918;2022-10-01T00:39:51;8.87;;;8.07;;
13218;SDS011;6674;49.152;11.918;2022-10-01T00:42:19;8.33;;;7.63;;
13218;SDS011;6674;49.152;11.918;2022-10-01T00:44:48;8.20;;;7.50;;
13218;SDS011;6674;49.152;11.918;2022-10-01T00:47:23;8.77;;;7.97;;
13218;SDS011;6674;49.152;11.918;2022-10-01T00:49:53;9.70;;;8.80;;
13218;SDS011;6674;49.152;11.918;2022-10-01T00:52:27;8.73;;;8.03;;
13218;SDS011;6674;49.152;11.918;2022-10-01T00:54:57;10.47;;;9.43;;
13218;SDS011;6674;49.152;11.918;2022-10-01T00:57:27;10.27;;;9.37;;
13218;SDS011;6674;49.152;11.918;2022-10-01T00:59:55;10.20;;;9.30;;
13218;SDS011;6674;49.152;11.918;2022-10-01T01:02:25;12.03;;;11.00;;
13218;SDS011;6674;49.152;11.918;2022-10-01T01:04:52;13.20;;;12.00;;
13218;SDS011;6674;49.152;11.918;2022-10-01T01:07:18;13.00;;;11.83;;
13218;SDS011;6674;49.152;11.918;2022-10-01T01:09:47;12.63;;;11.53;;
13218;SDS011;6674;49.152;11.918;2022-10-01T01:12:19;12.93;;;11.63;;
13218;SDS011;6674;49.152;11.918;2022-10-01T01:15:01;12.37;;;11.23;;
13218;SDS011;6674;49.152;11.918;2022-10-01T01:17:40;12.83;;;11.60;;
13218;SDS011;6674;49.152;11.918;2022-10-01T01:20:22;13.77;;;12.47;;
13218;SDS011;6674;49.152;11.918;2022-10-01T01:23:01;13.43;;;12.13;;
13218;SDS011;6674;49.152;11.918;2022-10-01T01:25:38;15.00;;;13.60;;
13218;SDS011;6674;49.152;11.918;2022-10-01T01:28:14;16.33;;;14.83;;
13218;SDS011;6674;49.152;11.918;2022-10-01T01:30:47;14.90;;;13.47;;
13218;SDS011;6674;49.152;11.918;2022-10-01T01:33:17;12.53;;;11.27;;
13218;SDS011;6674;49.152;11.918;2022-10-01T01:35:47;13.53;;;12.23;;
13218;SDS011;6674;49.152;11.918;2022-10-01T01:38:17;12.53;;;11.43;;
13218;SDS011;6674;49.152;11.918;2022-10-01T01:40:48;14.17;;;12.87;;
13218;SDS011;6674;49.152;11.918;2022-10-01T01:43:22;13.63;;;12.33;;
13218;SDS011;6674;49.152;11.918;2022-10-01T01:45:53;13.57;;;12.27;;
13218;SDS011;6674;49.152;11.918;2022-10-01T01:48:20;14.03;;;12.63;;
13218;SDS011;6674;49.152;11.918;2022-10-01T01:50:50;12.60;;;11.50;;
13218;SDS011;6674;49.152;11.918;2022-10-01T01:53:19;12.53;;;11.40;;
13218;SDS011;6674;49.152;11.918;2022-10-01T01:55:46;13.03;;;11.73;;
13218;SDS011;6674;49.152;11.918;2022-10-01T01:58:14;14.07;;;12.67;;
13218;SDS011;6674;49.152;11.918;2022-10-01T02:00:42;13.37;;;12.07;;
13218;SDS011;6674;49.152;11.918;2022-10-01T02:03:09;13.57;;;12.23;;
13218;SDS011;6674;49.152;11.918;2022-10-01T02:05:37;12.57;;;11.37;;
13218;SDS011;6674;49.152;11.918;2022-10-01T02:08:12;12.47;;;11.27;;
13218;SDS011;6674;49.152;11.918;2022-10-01T02:13:43;14.10;;;12.80;;
13218;SDS011;6674;49.152;11.918;2022-10-01T02:16:21;12.53;;;11.33;;
13218;SDS011;6674;49.152;11.918;2022-10-01T02:18:53;12.93;;;11.73;;
13218;SDS011;6674;49.152;11.918;2022-10-01T02:21:27;13.67;;;12.37;;
13218;SDS011;6674;49.152;11.918;2022-10-01T02:23:58;12.80;;;11.63;;
13218;SDS011;6674;49.152;11.918;2022-10-01T02:26:30;13.17;;;11.87;;
13218;SDS011;6674;49.152;11.918;2022-10-01T02:29:03;13.63;;;12.33;;
13218;SDS011;6674;49.152;11.918;2022-10-01T02:31:34;13.50;;;12.07;;
13218;SDS011;6674;49.152;11.918;2022-10-01T02:34:01;15.57;;;14.07;;
13218;SDS011;6674;49.152;11.918;2022-10-01T02:36:31;15.87;;;14.27;;
13218;SDS011;6674;49.152;11.918;2022-10-01T02:38:59;16.97;;;15.27;;
13218;SDS011;6674;49.152;11.918;2022-10-01T02:41:29;15.67;;;14.10;;
13218;SDS011;6674;49.152;11.918;2022-10-01T02:44:02;17.23;;;15.43;;
13218;SDS011;6674;49.152;11.918;2022-10-01T02:46:32;15.97;;;14.37;;
13218;SDS011;6674;49.152;11.918;2022-10-01T02:49:06;19.30;;;17.20;;
13218;SDS011;6674;49.152;11.918;2022-10-01T02:51:36;18.27;;;16.37;;
13218;SDS011;6674;49.152;11.918;2022-10-01T02:54:11;16.83;;;15.13;;
13218;SDS011;6674;49.152;11.918;2022-10-01T02:56:41;18.30;;;16.37;;
13218;SDS011;6674;49.152;11.918;2022-10-01T02:59:25;18.17;;;16.30;;
13218;SDS011;6674;49.152;11.918;2022-10-01T03:01:53;18.87;;;16.87;;
13218;SDS011;6674;49.152;11.918;2022-10-01T03:04:20;19.33;;;17.33;;
13218;SDS011;6674;49.152;11.918;2022-10-01T03:06:46;18.90;;;16.93;;
13218;SDS011;6674;49.152;11.918;2022-10-01T03:09:13;20.63;;;18.43;;
13218;SDS011;6674;49.152;11.918;2022-10-01T03:11:40;18.40;;;16.50;;
13218;SDS011;6674;49.152;11.918;2022-10-01T03:14:08;19.87;;;17.67;;
13218;SDS011;6674;49.152;11.918;2022-10-01T03:16:35;20.27;;;18.00;;
13218;SDS011;6674;49.152;11.918;2022-10-01T03:19:03;19.20;;;17.20;;
13218;SDS011;6674;49.152;11.918;2022-10-01T03:21:30;21.87;;;19.40;;
13218;SDS011;6674;49.152;11.918;2022-10-01T03:23:57;21.83;;;19.03;;
13218;SDS011;6674;49.152;11.918;2022-10-01T03:26:23;23.03;;;19.97;;
13218;SDS011;6674;49.152;11.918;2022-10-01T03:28:50;23.40;;;20.77;;
13218;SDS011;6674;49.152;11.918;2022-10-01T03:31:17;21.97;;;19.57;;
13218;SDS011;6674;49.152;11.918;2022-10-01T03:33:43;25.80;;;20.90;;
13218;SDS011;6674;49.152;11.918;2022-10-01T03:36:11;24.30;;;20.37;;
13218;SDS011;6674;49.152;11.918;2022-10-01T03:38:38;20.20;;;18.03;;
13218;SDS011;6674;49.152;11.918;2022-10-01T03:41:05;22.03;;;18.73;;
13218;SDS011;6674;49.152;11.918;2022-10-01T03:43:31;23.33;;;20.27;;
13218;SDS011;6674;49.152;11.918;2022-10-01T03:45:58;23.57;;;20.07;;
13218;SDS011;6674;49.152;11.918;2022-10-01T03:48:25;23.63;;;19.00;;
13218;SDS011;6674;49.152;11.918;2022-10-01T03:50:52;18.13;;;15.63;;
13218;SDS011;6674;49.152;11.918;2022-10-01T03:53:21;20.43;;;17.40;;
13218;SDS011;6674;49.152;11.918;2022-10-01T03:55:49;19.60;;;17.50;;
13218;SDS011;6674;49.152;11.918;2022-10-01T03:58:15;19.70;;;17.60;;
13218;SDS011;6674;49.152;11.918;2022-10-01T04:00:43;24.67;;;20.87;;
13218;SDS011;6674;49.152;11.918;2022-10-01T04:03:10;22.63;;;20.03;;
13218;SDS011;6674;49.152;11.918;2022-10-01T04:05:37;23.43;;;19.60;;
13218;SDS011;6674;49.152;11.918;2022-10-01T04:08:04;23.17;;;19.53;;
13218;SDS011;6674;49.152;11.918;2022-10-01T04:10:32;25.80;;;21.40;;
13218;SDS011;6674;49.152;11.918;2022-10-01T04:12:59;25.77;;;20.53;;
13218;SDS011;6674;49.152;11.918;2022-10-01T04:15:27;23.43;;;20.50;;
13218;SDS011;6674;49.152;11.918;2022-10-01T04:17:54;24.00;;;19.27;;
13218;SDS011;6674;49.152;11.918;2022-10-01T04:20:21;25.83;;;21.47;;
13218;SDS011;6674;49.152;11.918;2022-10-01T04:22:47;23.87;;;20.23;;
13218;SDS011;6674;49.152;11.918;2022-10-01T04:25:14;25.70;;;21.47;;
13218;SDS011;6674;49.152;11.918;2022-10-01T04:27:53;23.77;;;19.77;;
13218;SDS011;6674;49.152;11.918;2022-10-01T04:30:21;22.03;;;18.67;;
13218;SDS011;6674;49.152;11.918;2022-10-01T04:32:48;22.00;;;18.47;;
13218;SDS011;6674;49.152;11.918;2022-10-01T04:35:14;21.70;;;18.53;;
13218;SDS011;6674;49.152;11.918;2022-10-01T04:37:41;22.87;;;19.17;;
13218;SDS011;6674;49.152;11.918;2022-10-01T04:40:08;22.07;;;18.87;;
13218;SDS011;6674;49.152;11.918;2022-10-01T04:42:37;22.67;;;18.43;;
13218;SDS011;6674;49.152;11.918;2022-10-01T04:45:06;23.47;;;19.33;;
13218;SDS011;6674;49.152;11.918;2022-10-01T04:47:33;26.10;;;21.10;;
13218;SDS011;6674;49.152;11.918;2022-10-01T04:50:00;25.00;;;20.73;;
13218;SDS011;6674;49.152;11.918;2022-10-01T04:52:27;24.87;;;20.27;;
13218;SDS011;6674;49.152;11.918;2022-10-01T04:54:53;25.23;;;19.47;;
13218;SDS011;6674;49.152;11.918;2022-10-01T04:57:20;24.63;;;19.83;;
13218;SDS011;6674;49.152;11.918;2022-10-01T04:59:47;24.07;;;19.53;;
13218;SDS011;6674;49.152;11.918;2022-10-01T05:02:16;26.87;;;21.83;;
13218;SDS011;6674;49.152;11.918;2022-10-01T05:04:43;27.00;;;22.13;;
13218;SDS011;6674;49.152;11.918;2022-10-01T05:07:09;27.67;;;22.03;;
13218;SDS011;6674;49.152;11.918;2022-10-01T05:09:36;29.57;;;22.37;;
13218;SDS011;6674;49.152;11.918;2022-10-01T05:12:03;29.60;;;22.40;;
13218;SDS011;6674;49.152;11.918;2022-10-01T05:14:32;28.23;;;22.73;;
13218;SDS011;6674;49.152;11.918;2022-10-01T05:16:59;27.23;;;22.50;;
13218;SDS011;6674;49.152;11.918;2022-10-01T05:19:27;27.53;;;22.70;;
13218;SDS011;6674;49.152;11.918;2022-10-01T05:21:54;27.07;;;22.13;;
13218;SDS011;6674;49.152;11.918;2022-10-01T05:24:21;30.00;;;23.10;;
13218;SDS011;6674;49.152;11.918;2022-10-01T05:26:48;26.97;;;20.87;;
13218;SDS011;6674;49.152;11.918;2022-10-01T05:29:14;28.37;;;21.83;;
13218;SDS011;6674;49.152;11.918;2022-10-01T05:31:42;28.10;;;22.13;;
13218;SDS011;6674;49.152;11.918;2022-10-01T05:34:09;22.87;;;19.17;;
13218;SDS011;6674;49.152;11.918;2022-10-01T05:36:37;20.47;;;17.47;;
13218;SDS011;6674;49.152;11.918;2022-10-01T05:39:04;23.20;;;19.13;;
13218;SDS011;6674;49.152;11.918;2022-10-01T05:41:31;22.17;;;19.10;;
13218;SDS011;6674;49.152;11.918;2022-10-01T05:43:57;22.67;;;17.67;;
13218;SDS011;6674;49.152;11.918;2022-10-01T05:46:24;22.87;;;19.23;;
13218;SDS011;6674;49.152;11.918;2022-10-01T05:48:52;25.47;;;20.50;;
13218;SDS011;6674;49.152;11.918;2022-10-01T05:51:19;23.93;;;19.53;;
13218;SDS011;6674;49.152;11.918;2022-10-01T05:53:47;25.53;;;20.20;;
13218;SDS011;6674;49.152;11.918;2022-10-01T05:56:13;26.57;;;21.30;;
13218;SDS011;6674;49.152;11.918;2022-10-01T05:58:40;28.73;;;23.30;;
13218;SDS011;6674;49.152;11.918;2022-10-01T06:01:07;25.40;;;20.50;;
13218;SDS011;6674;49.152;11.918;2022-10-01T06:03:33;26.50;;;21.50;;
13218;SDS011;6674;49.152;11.918;2022-10-01T06:06:00;26.40;;;21.57;;
13218;SDS011;6674;49.152;11.918;2022-10-01T06:08:29;26.43;;;21.90;;
13218;SDS011;6674;49.152;11.918;2022-10-01T06:11:00;24.37;;;20.80;;
13218;SDS011;6674;49.152;11.918;2022-10-01T06:13:27;26.50;;;21.20;;
13218;SDS011;6674;49.152;11.918;2022-10-01T06:15:54;24.63;;;21.00;;
13218;SDS011;6674;49.152;11.918;2022-10-01T06:18:21;26.00;;;21.43;;
13218;SDS011;6674;49.152;11.918;2022-10-01T06:20:48;25.33;;;20.63;;
13218;SDS011;6674;49.152;11.918;2022-10-01T06:23:15;25.87;;;21.27;;
13218;SDS011;6674;49.152;11.918;2022-10-01T06:25:42;21.70;;;18.43;;
13218;SDS011;6674;49.152;11.918;2022-10-01T06:28:11;22.57;;;18.43;;
13218;SDS011;6674;49.152;11.918;2022-10-01T06:30:38;24.43;;;20.17;;
13218;SDS011;6674;49.152;11.918;2022-10-01T06:33:05;24.27;;;19.57;;
13218;SDS011;6674;49.152;11.918;2022-10-01T06:35:34;22.90;;;19.53;;
13218;SDS011;6674;49.152;11.918;2022-10-01T06:38:01;23.17;;;19.57;;
13218;SDS011;6674;49.152;11.918;2022-10-01T06:40:28;23.40;;;20.17;;
13218;SDS011;6674;49.152;11.918;2022-10-01T06:42:58;25.13;;;20.20;;
13218;SDS011;6674;49.152;11.918;2022-10-01T06:45:26;23.87;;;20.03;;
13218;SDS011;6674;49.152;11.918;2022-10-01T06:47:53;24.10;;;20.40;;
13218;SDS011;6674;49.152;11.918;2022-10-01T06:50:21;24.07;;;20.57;;
13218;SDS011;6674;49.152;11.918;2022-10-01T06:52:47;23.27;;;19.97;;
13218;SDS011;6674;49.152;11.918;2022-10-01T06:55:14;21.93;;;19.53;;
13218;SDS011;6674;49.152;11.918;2022-10-01T06:57:41;22.47;;;19.47;;
13218;SDS011;6674;49.152;11.918;2022-10-01T07:00:08;22.43;;;19.73;;
13218;SDS011;6674;49.152;11.918;2022-10-01T07:02:37;23.23;;;19.17;;
13218;SDS011;6674;49.152;11.918;2022-10-01T07:05:04;20.93;;;18.70;;
13218;SDS011;6674;49.152;11.918;2022-10-01T07:07:32;20.50;;;17.67;;
13218;SDS011;6674;49.152;11.918;2022-10-01T07:10:00;21.30;;;18.73;;
13218;SDS011;6674;49.152;11.918;2022-10-01T07:12:27;21.07;;;18.47;;
13218;SDS011;6674;49.152;11.918;2022-10-01T07:14:54;21.37;;;17.37;;
13218;SDS011;6674;49.152;11.918;2022-10-01T07:17:20;23.17;;;19.47;;
13218;SDS011;6674;49.152;11.918;2022-10-01T07:19:49;20.30;;;18.10;;
13218;SDS011;6674;49.152;11.918;2022-10-01T07:22:15;20.07;;;17.97;;
13218;SDS011;6674;49.152;11.918;2022-10-01T07:24:43;21.53;;;18.57;;
13218;SDS011;6674;49.152;11.918;2022-10-01T07:27:10;20.63;;;17.97;;
13218;SDS011;6674;49.152;11.918;2022-10-01T07:29:38;19.37;;;17.37;;
13218;SDS011;6674;49.152;11.918;2022-10-01T07:32:05;20.03;;;17.93;;
13218;SDS011;6674;49.152;11.918;2022-10-01T07:34:33;19.63;;;17.53;;
13218;SDS011;6674;49.152;11.918;2022-10-01T07:37:02;18.83;;;16.83;;
13218;SDS011;6674;49.152;11.918;2022-10-01T07:39:28;18.67;;;16.47;;
13218;SDS011;6674;49.152;11.918;2022-10-01T07:41:55;19.00;;;17.00;;
13218;SDS011;6674;49.152;11.918;2022-10-01T07:44:23;19.13;;;17.13;;
13218;SDS011;6674;49.152;11.918;2022-10-01T07:46:50;19.30;;;16.73;;
13218;SDS011;6674;49.152;11.918;2022-10-01T07:49:18;17.57;;;15.77;;
13218;SDS011;6674;49.152;11.918;2022-10-01T07:51:44;17.67;;;15.77;;
13218;SDS011;6674;49.152;11.918;2022-10-01T07:54:14;17.17;;;15.37;;
13218;SDS011;6674;49.152;11.918;2022-10-01T07:56:43;16.00;;;14.40;;
13218;SDS011;6674;49.152;11.918;2022-10-01T07:59:09;14.80;;;13.40;;
13218;SDS011;6674;49.152;11.918;2022-10-01T08:01:36;16.50;;;14.90;;
13218;SDS011;6674;49.152;11.918;2022-10-01T08:04:03;15.73;;;14.13;;
13218;SDS011;6674;49.152;11.918;2022-10-01T08:06:50;15.50;;;13.90;;
13218;SDS011;6674;49.152;11.918;2022-10-01T08:09:19;15.27;;;13.77;;
13218;SDS011;6674;49.152;11.918;2022-10-01T08:11:46;14.73;;;13.33;;
13218;SDS011;6674;49.152;11.918;2022-10-01T08:14:13;14.53;;;13.13;;
13218;SDS011;6674;49.152;11.918;2022-10-01T08:16:40;14.70;;;13.30;;
13218;SDS011;6674;49.152;11.918;2022-10-01T08:19:07;14.80;;;13.30;;
13218;SDS011;6674;49.152;11.918;2022-10-01T08:21:33;12.83;;;11.63;;
13218;SDS011;6674;49.152;11.918;2022-10-01T08:24:00;13.47;;;12.07;;
13218;SDS011;6674;49.152;11.918;2022-10-01T08:26:29;13.27;;;11.83;;
13218;SDS011;6674;49.152;11.918;2022-10-01T08:28:55;13.60;;;12.30;;
13218;SDS011;6674;49.152;11.918;2022-10-01T08:31:22;14.20;;;12.70;;
13218;SDS011;6674;49.152;11.918;2022-10-01T08:33:49;13.37;;;12.07;;
13218;SDS011;6674;49.152;11.918;2022-10-01T08:36:16;12.73;;;11.50;;
13218;SDS011;6674;49.152;11.918;2022-10-01T08:38:43;14.13;;;12.73;;
13218;SDS011;6674;49.152;11.918;2022-10-01T08:41:21;13.10;;;11.70;;
13218;SDS011;6674;49.152;11.918;2022-10-01T08:43:56;13.00;;;11.80;;
13218;SDS011;6674;49.152;11.918;2022-10-01T08:46:25;13.00;;;11.70;;
13218;SDS011;6674;49.152;11.918;2022-10-01T08:48:57;13.40;;;12.10;;
13218;SDS011;6674;49.152;11.918;2022-10-01T08:51:30;13.43;;;12.20;;
13218;SDS011;6674;49.152;11.918;2022-10-01T08:54:05;13.13;;;11.83;;
13218;SDS011;6674;49.152;11.918;2022-10-01T08:56:38;12.70;;;10.97;;
13218;SDS011;6674;49.152;11.918;2022-10-01T08:59:12;12.87;;;11.67;;
13218;SDS011;6674;49.152;11.918;2022-10-01T09:01:46;12.77;;;11.33;;
13218;SDS011;6674;49.152;11.918;2022-10-01T09:04:12;13.37;;;11.90;;
13218;SDS011;6674;49.152;11.918;2022-10-01T09:06:39;12.67;;;11.47;;
13218;SDS011;6674;49.152;11.918;2022-10-01T09:09:14;12.47;;;11.27;;
13218;SDS011;6674;49.152;11.918;2022-10-01T09:11:51;13.10;;;11.80;;
13218;SDS011;6674;49.152;11.918;2022-10-01T09:14:30;13.13;;;11.77;;
13218;SDS011;6674;49.152;11.918;2022-10-01T09:17:07;12.50;;;11.30;;
13218;SDS011;6674;49.152;11.918;2022-10-01T09:19:51;11.67;;;10.57;;
13218;SDS011;6674;49.152;11.918;2022-10-01T09:22:30;13.00;;;11.80;;
13218;SDS011;6674;49.152;11.918;2022-10-01T09:25:08;11.83;;;10.70;;
13218;SDS011;6674;49.152;11.918;2022-10-01T09:27:38;11.87;;;10.67;;
13218;SDS011;6674;49.152;11.918;2022-10-01T09:30:09;12.00;;;10.90;;
13218;SDS011;6674;49.152;11.918;2022-10-01T09:32:40;10.70;;;9.70;;
13218;SDS011;6674;49.152;11.918;2022-10-01T09:35:14;10.83;;;9.83;;
13218;SDS011;6674;49.152;11.918;2022-10-01T09:37:50;11.40;;;10.30;;
13218;SDS011;6674;49.152;11.918;2022-10-01T09:40:22;10.43;;;9.43;;
13218;SDS011;6674;49.152;11.918;2022-10-01T09:42:52;11.07;;;10.07;;
13218;SDS011;6674;49.152;11.918;2022-10-01T09:45:20;10.87;;;9.87;;
13218;SDS011;6674;49.152;11.918;2022-10-01T09:47:50;12.60;;;11.40;;
13218;SDS011;6674;49.152;11.918;2022-10-01T09:50:20;12.20;;;11.00;;
13218;SDS011;6674;49.152;11.918;2022-10-01T09:52:55;11.43;;;10.43;;
13218;SDS011;6674;49.152;11.918;2022-10-01T09:55:27;9.97;;;9.00;;
13218;SDS011;6674;49.152;11.918;2022-10-01T09:57:58;12.37;;;11.20;;
13218;SDS011;6674;49.152;11.918;2022-10-01T10:00:31;11.10;;;10.00;;
13218;SDS011;6674;49.152;11.918;2022-10-01T10:02:58;9.50;;;8.60;;
13218;SDS011;6674;49.152;11.918;2022-10-01T10:05:26;10.07;;;9.17;;
13218;SDS011;6674;49.152;11.918;2022-10-01T10:07:54;11.17;;;10.17;;
13218;SDS011;6674;49.152;11.918;2022-10-01T10:10:24;11.67;;;10.57;;
13218;SDS011;6674;49.152;11.918;2022-10-01T10:12:55;11.60;;;10.40;;
13218;SDS011;6674;49.152;11.918;2022-10-01T10:15:24;11.77;;;10.67;;
13218;SDS011;6674;49.152;11.918;2022-10-01T10:17:52;11.20;;;10.20;;
13218;SDS011;6674;49.152;11.918;2022-10-01T10:20:27;12.23;;;11.00;;
13218;SDS011;6674;49.152;11.918;2022-10-01T10:23:05;10.83;;;9.73;;
13218;SDS011;6674;49.152;11.918;2022-10-01T10:25:33;12.57;;;10.47;;
13218;SDS011;6674;49.152;11.918;2022-10-01T10:28:01;10.30;;;9.30;;
13218;SDS011;6674;49.152;11.918;2022-10-01T10:30:29;10.17;;;9.17;;
13218;SDS011;6674;49.152;11.918;2022-10-01T10:33:02;10.73;;;9.67;;
13218;SDS011;6674;49.152;11.918;2022-10-01T10:35:31;9.90;;;8.93;;
13218;SDS011;6674;49.152;11.918;2022-10-01T10:37:59;9.20;;;8.40;;
13218;SDS011;6674;49.152;11.918;2022-10-01T10:40:29;9.57;;;8.67;;
13218;SDS011;6674;49.152;11.918;2022-10-01T10:43:01;9.57;;;8.77;;
13218;SDS011;6674;49.152;11.918;2022-10-01T10:45:30;10.37;;;9.33;;
13218;SDS011;6674;49.152;11.918;2022-10-01T10:47:58;10.03;;;9.03;;
13218;SDS011;6674;49.152;11.918;2022-10-01T10:50:31;8.63;;;7.80;;
13218;SDS011;6674;49.152;11.918;2022-10-01T10:53:10;9.30;;;8.40;;
13218;SDS011;6674;49.152;11.918;2022-10-01T10:55:51;7.00;;;6.40;;
13218;SDS011;6674;49.152;11.918;2022-10-01T10:58:22;8.47;;;7.67;;
13218;SDS011;6674;49.152;11.918;2022-10-01T11:00:50;7.00;;;6.40;;
13218;SDS011;6674;49.152;11.918;2022-10-01T11:03:22;7.43;;;6.73;;
13218;SDS011;6674;49.152;11.918;2022-10-01T11:05:51;7.73;;;7.00;;
13218;SDS011;6674;49.152;11.918;2022-10-01T11:08:21;7.13;;;6.43;;
13218;SDS011;6674;49.152;11.918;2022-10-01T11:10:52;6.57;;;6.07;;
13218;SDS011;6674;49.152;11.918;2022-10-01T11:13:32;6.50;;;5.90;;
13218;SDS011;6674;49.152;11.918;2022-10-01T11:22:20;5.73;;;5.23;;
13218;SDS011;6674;49.152;11.918;2022-10-01T11:25:01;6.53;;;5.90;;
13218;SDS011;6674;49.152;11.918;2022-10-01T11:27:44;6.20;;;5.60;;
13218;SDS011;6674;49.152;11.918;2022-10-01T11:30:17;6.33;;;5.83;;
13218;SDS011;6674;49.152;11.918;2022-10-01T11:32:48;5.70;;;5.20;;
13218;SDS011;6674;49.152;11.918;2022-10-01T11:35:31;5.97;;;5.40;;
13218;SDS011;6674;49.152;11.918;2022-10-01T11:38:23;5.47;;;4.97;;
13218;SDS011;6674;49.152;11.918;2022-10-01T11:41:07;4.43;;;4.03;;
13218;SDS011;6674;49.152;11.918;2022-10-01T11:43:48;5.00;;;4.60;;
13218;SDS011;6674;49.152;11.918;2022-10-01T11:46:22;5.13;;;4.63;;
13218;SDS011;6674;49.152;11.918;2022-10-01T11:48:56;4.23;;;3.83;;
13218;SDS011;6674;49.152;11.918;2022-10-01T11:51:28;4.53;;;4.13;;
13218;SDS011;6674;49.152;11.918;2022-10-01T11:54:02;4.50;;;4.10;;
13218;SDS011;6674;49.152;11.918;2022-10-01T11:56:33;3.90;;;3.60;;
13218;SDS011;6674;49.152;11.918;2022-10-01T11:59:23;3.77;;;3.47;;
13218;SDS011;6674;49.152;11.918;2022-10-01T12:02:01;3.73;;;3.30;;
13218;SDS011;6674;49.152;11.918;2022-10-01T12:04:35;4.27;;;3.60;;
13218;SDS011;6674;49.152;11.918;2022-10-01T12:07:12;3.10;;;2.90;;
13218;SDS011;6674;49.152;11.918;2022-10-01T12:09:48;3.40;;;3.10;;
13218;SDS011;6674;49.152;11.918;2022-10-01T12:12:24;3.37;;;3.07;;
13218;SDS011;6674;49.152;11.918;2022-10-01T12:14:55;3.80;;;3.50;;
13218;SDS011;6674;49.152;11.918;2022-10-01T12:17:30;3.40;;;3.20;;
13218;SDS011;6674;49.152;11.918;2022-10-01T12:20:02;3.40;;;3.10;;
13218;SDS011;6674;49.152;11.918;2022-10-01T12:22:34;3.30;;;3.00;;
13218;SDS011;6674;49.152;11.918;2022-10-01T12:25:09;3.40;;;3.10;;
13218;SDS011;6674;49.152;11.918;2022-10-01T12:27:41;3.30;;;3.03;;
13218;SDS011;6674;49.152;11.918;2022-10-01T12:30:19;3.70;;;3.40;;
13218;SDS011;6674;49.152;11.918;2022-10-01T12:32:52;3.90;;;3.30;;
13218;SDS011;6674;49.152;11.918;2022-10-01T12:35:37;3.53;;;3.23;;
13218;SDS011;6674;49.152;11.918;2022-10-01T12:38:16;3.57;;;3.00;;
13218;SDS011;6674;49.152;11.918;2022-10-01T12:40:52;3.50;;;3.20;;
13218;SDS011;6674;49.152;11.918;2022-10-01T12:46:27;3.40;;;3.20;;
13218;SDS011;6674;49.152;11.918;2022-10-01T12:49:02;3.40;;;3.20;;
13218;SDS011;6674;49.152;11.918;2022-10-01T12:51:37;3.70;;;3.40;;
13218;SDS011;6674;49.152;11.918;2022-10-01T12:54:12;3.67;;;3.37;;
13218;SDS011;6674;49.152;11.918;2022-10-01T12:56:58;3.47;;;3.20;;
13218;SDS011;6674;49.152;11.918;2022-10-01T12:59:36;3.37;;;3.07;;
13218;SDS011;6674;49.152;11.918;2022-10-01T13:02:17;5.07;;;3.60;;
13218;SDS011;6674;49.152;11.918;2022-10-01T13:05:05;3.60;;;3.30;;
13218;SDS011;6674;49.152;11.918;2022-10-01T13:07:52;3.40;;;3.10;;
13218;SDS011;6674;49.152;11.918;2022-10-01T13:10:37;3.20;;;3.00;;
13218;SDS011;6674;49.152;11.918;2022-10-01T13:13:15;3.63;;;3.33;;
13218;SDS011;6674;49.152;11.918;2022-10-01T13:15:46;3.60;;;3.30;;
13218;SDS011;6674;49.152;11.918;2022-10-01T13:18:19;3.07;;;2.87;;
13218;SDS011;6674;49.152;11.918;2022-10-01T13:20:56;3.50;;;2.93;;
13218;SDS011;6674;49.152;11.918;2022-10-01T13:23:32;3.07;;;2.77;;
13218;SDS011;6674;49.152;11.918;2022-10-01T13:26:04;3.60;;;2.83;;
13218;SDS011;6674;49.152;11.918;2022-10-01T13:28:41;3.30;;;2.93;;
13218;SDS011;6674;49.152;11.918;2022-10-01T13:31:17;3.17;;;2.87;;
13218;SDS011;6674;49.152;11.918;2022-10-01T13:33:52;2.80;;;2.60;;
13218;SDS011;6674;49.152;11.918;2022-10-01T13:36:26;2.50;;;2.30;;
13218;SDS011;6674;49.152;11.918;2022-10-01T13:38:56;2.90;;;2.70;;
13218;SDS011;6674;49.152;11.918;2022-10-01T13:41:23;3.13;;;2.60;;
13218;SDS011;6674;49.152;11.918;2022-10-01T13:43:54;3.50;;;3.20;;
13218;SDS011;6674;49.152;11.918;2022-10-01T13:46:24;4.13;;;2.77;;
13218;SDS011;6674;49.152;11.918;2022-10-01T13:48:53;2.90;;;2.70;;
13218;SDS011;6674;49.152;11.918;2022-10-01T13:51:21;3.27;;;2.80;;
13218;SDS011;6674;49.152;11.918;2022-10-01T13:54:00;2.30;;;2.20;;
13218;SDS011;6674;49.152;11.918;2022-10-01T13:56:28;2.70;;;2.53;;
13218;SDS011;6674;49.152;11.918;2022-10-01T13:59:00;3.10;;;2.60;;
13218;SDS011;6674;49.152;11.918;2022-10-01T14:01:28;2.50;;;2.27;;
13218;SDS011;6674;49.152;11.918;2022-10-01T14:04:03;2.23;;;2.03;;
13218;SDS011;6674;49.152;11.918;2022-10-01T14:06:37;2.70;;;2.50;;
13218;SDS011;6674;49.152;11.918;2022-10-01T14:09:09;2.23;;;2.07;;
13218;SDS011;6674;49.152;11.918;2022-10-01T14:11:41;2.60;;;2.30;;
13218;SDS011;6674;49.152;11.918;2022-10-01T14:14:30;2.97;;;2.67;;
13218;SDS011;6674;49.152;11.918;2022-10-01T14:17:18;2.70;;;2.50;;
13218;SDS011;6674;49.152;11.918;2022-10-01T14:19:47;3.50;;;3.20;;
13218;SDS011;6674;49.152;11.918;2022-10-01T14:25:08;3.07;;;2.87;;
13218;SDS011;6674;49.152;11.918;2022-10-01T14:27:46;3.83;;;3.53;;
13218;SDS011;6674;49.152;11.918;2022-10-01T14:30:26;3.80;;;3.40;;
13218;SDS011;6674;49.152;11.918;2022-10-01T14:33:11;3.60;;;3.30;;
13218;SDS011;6674;49.152;11.918;2022-10-01T14:35:47;3.87;;;3.53;;
13218;SDS011;6674;49.152;11.918;2022-10-01T14:38:22;3.83;;;3.53;;
13218;SDS011;6674;49.152;11.918;2022-10-01T14:40:49;4.10;;;3.80;;
13218;SDS011;6674;49.152;11.918;2022-10-01T14:43:17;4.23;;;3.77;;
13218;SDS011;6674;49.152;11.918;2022-10-01T14:45:53;3.63;;;3.33;;
13218;SDS011;6674;49.152;11.918;2022-10-01T14:48:22;4.20;;;3.90;;
13218;SDS011;6674;49.152;11.918;2022-10-01T14:50:50;3.80;;;3.50;;
13218;SDS011;6674;49.152;11.918;2022-10-01T14:53:19;3.37;;;3.07;;
13218;SDS011;6674;49.152;11.918;2022-10-01T14:55:49;3.90;;;3.40;;
13218;SDS011;6674;49.152;11.918;2022-10-01T14:58:19;4.50;;;4.10;;
13218;SDS011;6674;49.152;11.918;2022-10-01T15:00:52;3.53;;;3.30;;
13218;SDS011;6674;49.152;11.918;2022-10-01T15:03:20;4.10;;;3.80;;
13218;SDS011;6674;49.152;11.918;2022-10-01T15:05:47;4.00;;;3.70;;